Time;durP1;ratioP1;P1;durP2;ratioP2;P2;SDS_P1;SDS_P2;PMS_P1;PMS_P2;Temp;Humidity;BMP_temperature;BMP_pressure;BME280_temperature;BME280_humidity;BME280_pressure;Samples;Min_cycle;Max_cycle;Signal;HPM_P1;HPM_P2
2022/07/05 00:00:49;;;;;;;2.08;0.65;;;15.80;92.90;;;;;;5038631;28;20384;-74
2022/07/05 00:03:15;;;;;;;0.90;0.35;;;15.70;93.00;;;;;;5010564;28;20037;-75
2022/07/05 00:05:42;;;;;;;0.80;0.50;;;15.70;93.20;;;;;;5029023;28;20037;-74
2022/07/05 00:08:08;;;;;;;1.58;0.50;;;15.70;93.40;;;;;;5010243;28;20025;-74
2022/07/05 00:10:36;;;;;;;1.27;0.47;;;15.70;93.50;;;;;;5006157;28;20162;-74
2022/07/05 00:13:03;;;;;;;0.93;0.50;;;15.70;93.80;;;;;;5027117;28;20029;-74
2022/07/05 00:15:30;;;;;;;0.60;0.40;;;15.70;94.00;;;;;;5027378;28;20033;-74
2022/07/05 00:17:56;;;;;;;1.70;0.40;;;15.60;94.10;;;;;;5009745;28;20029;-74
2022/07/05 00:20:23;;;;;;;1.35;0.40;;;15.60;94.30;;;;;;5024311;28;20395;-74
2022/07/05 00:22:50;;;;;;;1.75;0.40;;;15.60;94.40;;;;;;5007934;28;20037;-74
2022/07/05 00:25:16;;;;;;;1.23;0.70;;;15.60;94.50;;;;;;5026081;28;20041;-74
2022/07/05 00:27:43;;;;;;;1.88;0.50;;;15.50;94.90;;;;;;5030402;28;20021;-74
2022/07/05 00:30:10;;;;;;;1.65;0.57;;;15.50;95.20;;;;;;5028812;28;20017;-74
2022/07/05 00:32:37;;;;;;;2.17;0.60;;;15.40;95.60;;;;;;5015195;28;20040;-74
2022/07/05 00:35:05;;;;;;;1.92;0.60;;;15.40;95.90;;;;;;5031068;28;20033;-74
2022/07/05 00:37:31;;;;;;;1.60;0.60;;;15.40;96.50;;;;;;5029314;28;20490;-74
2022/07/05 00:39:57;;;;;;;0.80;0.50;;;15.30;96.90;;;;;;5027699;28;20045;-74
2022/07/05 00:42:24;;;;;;;1.58;0.50;;;15.30;97.10;;;;;;5031563;28;20048;-74
2022/07/05 00:44:50;;;;;;;3.33;0.82;;;15.30;97.40;;;;;;5033640;28;20491;-74
2022/07/05 00:47:17;;;;;;;1.85;0.75;;;15.30;98.00;;;;;;5028453;28;20373;-74
2022/07/05 00:49:44;;;;;;;2.95;0.80;;;15.20;98.50;;;;;;5009662;28;20523;-74
2022/07/05 00:52:11;;;;;;;1.88;0.70;;;15.20;98.90;;;;;;5012175;28;20376;-74
2022/07/05 00:54:39;;;;;;;1.63;0.50;;;15.10;99.60;;;;;;5030854;28;20330;-74
2022/07/05 00:57:06;;;;;;;1.63;0.60;;;15.10;99.90;;;;;;5032021;28;20048;-74
2022/07/05 00:59:33;;;;;;;2.40;0.70;;;15.10;99.90;;;;;;5028189;28;20033;-74
2022/07/05 01:01:59;;;;;;;1.67;0.60;;;15.00;99.90;;;;;;5028343;28;20699;-74
2022/07/05 01:04:27;;;;;;;2.13;0.60;;;14.90;99.90;;;;;;5030603;28;20024;-74
2022/07/05 01:06:54;;;;;;;2.95;0.50;;;14.80;99.90;;;;;;5020060;28;20036;-73
2022/07/05 01:09:22;;;;;;;2.70;0.60;;;14.80;99.90;;;;;;5016455;28;20051;-74
2022/07/05 01:11:51;;;;;;;1.55;0.70;;;14.70;99.90;;;;;;5032150;28;20020;-74
2022/07/05 01:14:19;;;;;;;2.53;0.80;;;14.70;99.90;;;;;;5034630;28;20475;-74
2022/07/05 01:16:46;;;;;;;2.95;0.73;;;14.70;99.90;;;;;;5033746;28;20028;-74
2022/07/05 01:19:13;;;;;;;3.30;0.93;;;14.70;99.90;;;;;;5031952;28;20024;-74
2022/07/05 01:21:42;;;;;;;2.00;0.63;;;14.70;99.90;;;;;;5014617;28;20107;-76
2022/07/05 01:24:13;;;;;;;2.30;0.70;;;14.60;99.90;;;;;;5033436;28;20479;-74
2022/07/05 01:26:41;;;;;;;2.33;0.70;;;14.60;99.90;;;;;;5035040;28;20033;-78
2022/07/05 01:29:08;;;;;;;3.28;0.82;;;14.60;99.90;;;;;;5032475;28;20025;-74
2022/07/05 01:31:41;;;;;;;2.15;0.77;;;14.60;99.90;;;;;;5017676;28;20083;-73
2022/07/05 01:34:08;;;;;;;1.40;0.60;;;14.50;99.90;;;;;;5032182;28;20042;-73
2022/07/05 01:36:35;;;;;;;2.08;0.70;;;14.50;99.90;;;;;;5033675;28;20033;-74
2022/07/05 01:39:07;;;;;;;2.33;0.80;;;14.40;99.90;;;;;;5016308;28;20196;-74
2022/07/05 01:41:33;;;;;;;1.40;0.80;;;14.30;99.90;;;;;;5032231;28;20028;-74
2022/07/05 01:44:00;;;;;;;1.75;0.80;;;14.20;99.90;;;;;;5034632;28;21337;-78
2022/07/05 01:46:32;;;;;;;1.73;0.80;;;14.20;99.90;;;;;;5034051;28;21506;-78
2022/07/05 01:49:04;;;;;;;2.65;0.90;;;14.20;99.90;;;;;;5033155;28;20048;-77
2022/07/05 01:51:36;;;;;;;2.10;0.80;;;14.10;99.90;;;;;;5033424;28;20475;-78
2022/07/05 01:54:03;;;;;;;1.52;0.60;;;14.10;99.90;;;;;;5034874;28;20044;-78
2022/07/05 01:56:29;;;;;;;2.47;1.30;;;14.00;99.90;;;;;;5017816;28;20040;-78
2022/07/05 01:58:57;;;;;;;2.40;0.90;;;14.00;99.90;;;;;;5032321;28;20059;-80
2022/07/05 02:01:38;;;;;;;1.80;0.80;;;14.00;99.90;;;;;;5032920;28;20033;-80
2022/07/05 02:04:07;;;;;;;1.98;0.70;;;14.00;99.90;;;;;;5032351;28;20528;-76
2022/07/05 02:06:35;;;;;;;2.42;0.82;;;14.00;99.90;;;;;;5035358;28;20044;-76
2022/07/05 02:09:05;;;;;;;1.45;0.60;;;13.90;99.90;;;;;;5015294;28;20037;-76
2022/07/05 02:11:32;;;;;;;1.90;0.70;;;13.90;99.90;;;;;;5030254;28;20021;-76
2022/07/05 02:13:58;;;;;;;2.25;0.82;;;13.90;99.90;;;;;;5016529;28;20533;-73
2022/07/05 02:16:28;;;;;;;2.85;0.82;;;13.90;99.90;;;;;;5014299;28;20052;-73
2022/07/05 02:18:55;;;;;;;2.30;0.73;;;13.90;99.90;;;;;;5032466;28;20487;-73
2022/07/05 02:21:22;;;;;;;1.60;0.70;;;13.90;99.90;;;;;;4998719;28;21037;-74
2022/07/05 02:23:52;;;;;;;2.22;0.88;;;13.80;99.90;;;;;;5015064;28;20036;-73
2022/07/05 02:26:21;;;;;;;2.80;0.95;;;13.80;99.90;;;;;;5014430;28;20696;-73
2022/07/05 02:28:49;;;;;;;1.10;0.50;;;13.80;99.90;;;;;;5032289;28;20033;-74
2022/07/05 02:31:19;;;;;;;1.52;0.90;;;13.80;99.90;;;;;;5026513;28;20032;-74
2022/07/05 02:33:47;;;;;;;1.30;0.70;;;13.90;99.90;;;;;;5015133;28;20033;-74
2022/07/05 02:36:14;;;;;;;3.28;1.15;;;13.90;99.90;;;;;;5000118;28;20060;-74
2022/07/05 02:38:40;;;;;;;2.38;1.10;;;14.00;99.90;;;;;;5016044;28;20032;-76
2022/07/05 02:41:11;;;;;;;2.85;0.90;;;14.00;99.90;;;;;;5026036;28;20056;-76
2022/07/05 02:43:40;;;;;;;2.22;1.10;;;14.00;99.90;;;;;;5016215;28;20042;-76
2022/07/05 02:46:08;;;;;;;4.53;1.55;;;14.10;99.90;;;;;;5000964;28;20120;-76
2022/07/05 02:48:36;;;;;;;2.45;0.90;;;14.10;99.90;;;;;;5013371;28;20028;-76
2022/07/05 02:51:05;;;;;;;1.70;0.80;;;14.20;99.90;;;;;;5023017;28;20036;-76
2022/07/05 02:53:34;;;;;;;1.17;0.73;;;14.20;99.90;;;;;;4999750;28;20020;-76
2022/07/05 02:56:02;;;;;;;2.72;0.82;;;14.30;99.90;;;;;;5033925;28;20053;-76
2022/07/05 02:58:29;;;;;;;3.28;1.10;;;14.30;99.90;;;;;;5031957;28;21397;-77
2022/07/05 03:00:58;;;;;;;2.22;0.85;;;14.30;99.90;;;;;;5028484;28;21102;-74
2022/07/05 03:03:26;;;;;;;1.73;0.77;;;14.40;99.90;;;;;;5015865;28;20025;-74
2022/07/05 03:05:54;;;;;;;1.67;0.70;;;14.40;99.90;;;;;;5031794;28;20115;-74
2022/07/05 03:08:21;;;;;;;2.60;0.80;;;14.40;99.90;;;;;;5032463;28;20033;-74
2022/07/05 03:10:48;;;;;;;3.25;0.60;;;14.50;99.90;;;;;;5025544;28;20024;-73
2022/07/05 03:13:15;;;;;;;2.15;0.65;;;14.50;99.90;;;;;;5031874;28;20506;-74
2022/07/05 03:15:43;;;;;;;2.65;1.13;;;14.60;99.90;;;;;;5015523;28;20044;-74
2022/07/05 03:18:10;;;;;;;1.40;0.63;;;14.60;99.90;;;;;;5015714;28;20035;-74
2022/07/05 03:20:37;;;;;;;2.17;0.73;;;14.70;99.90;;;;;;5028003;28;20212;-74
2022/07/05 03:23:03;;;;;;;2.40;0.75;;;14.70;99.90;;;;;;5016808;28;20042;-74
2022/07/05 03:25:40;;;;;;;1.23;0.60;;;14.80;99.90;;;;;;5030462;28;20020;-74
2022/07/05 03:28:08;;;;;;;2.10;0.80;;;14.80;99.90;;;;;;5032016;28;20024;-74
2022/07/05 03:30:35;;;;;;;3.70;1.00;;;14.90;99.90;;;;;;5010625;28;20029;-73
2022/07/05 03:33:02;;;;;;;2.03;0.75;;;14.90;99.90;;;;;;5014128;28;20045;-74
2022/07/05 03:35:31;;;;;;;1.35;0.73;;;15.00;99.90;;;;;;5029037;28;20365;-74
2022/07/05 03:37:58;;;;;;;1.85;0.57;;;15.00;99.90;;;;;;5015112;28;20044;-78
2022/07/05 03:40:25;;;;;;;4.55;0.80;;;15.10;99.90;;;;;;5029019;28;20063;-78
2022/07/05 03:42:52;;;;;;;3.20;0.73;;;15.10;99.90;;;;;;5015797;28;20056;-78
2022/07/05 03:45:18;;;;;;;1.05;0.68;;;15.10;99.90;;;;;;5030780;28;20037;-79
2022/07/05 03:47:45;;;;;;;2.15;0.60;;;15.10;99.90;;;;;;5031246;28;20036;-78
2022/07/05 03:50:14;;;;;;;2.47;1.17;;;15.20;99.90;;;;;;5029453;28;20051;-78
2022/07/05 03:52:41;;;;;;;3.47;0.88;;;15.20;99.90;;;;;;5015959;28;20496;-78
2022/07/05 03:55:08;;;;;;;2.03;0.80;;;15.30;99.90;;;;;;5000544;28;20056;-78
2022/07/05 03:57:35;;;;;;;2.50;0.80;;;15.30;99.90;;;;;;5016241;28;20033;-79
2022/07/05 04:00:03;;;;;;;2.60;0.80;;;15.40;99.90;;;;;;5012771;28;20037;-78
2022/07/05 04:02:40;;;;;;;3.75;1.20;;;15.40;99.90;;;;;;5014475;28;21501;-80
2022/07/05 04:05:09;;;;;;;1.75;0.80;;;15.40;99.90;;;;;;4988699;28;20033;-78
2022/07/05 04:07:52;;;;;;;3.53;0.82;;;15.40;99.90;;;;;;5016973;28;20043;-78
2022/07/05 04:10:23;;;;;;;2.15;1.15;;;15.50;99.90;;;;;;5026992;28;20032;-78
2022/07/05 04:12:50;;;;;;;1.10;0.70;;;15.50;99.90;;;;;;5004304;28;20041;-79
2022/07/05 04:15:17;;;;;;;2.58;1.05;;;15.50;99.90;;;;;;4995007;28;20400;-77
2022/07/05 04:17:54;;;;;;;3.72;1.27;;;15.60;99.90;;;;;;5010664;28;20491;-79
2022/07/05 04:20:22;;;;;;;3.53;0.70;;;15.60;99.90;;;;;;5025076;28;20040;-79
2022/07/05 04:22:52;;;;;;;1.35;0.60;;;15.70;99.90;;;;;;5030159;28;20020;-80
2022/07/05 04:25:22;;;;;;;2.92;1.08;;;15.70;99.90;;;;;;5027517;28;20013;-77
2022/07/05 04:27:56;;;;;;;2.15;0.90;;;15.80;99.90;;;;;;5013444;28;20044;-77
2022/07/05 04:30:25;;;;;;;3.47;0.88;;;15.90;99.90;;;;;;5023545;28;20041;-79
2022/07/05 04:32:53;;;;;;;2.15;0.65;;;15.90;99.90;;;;;;5024819;28;20028;-77
2022/07/05 04:35:20;;;;;;;1.75;0.70;;;15.90;99.90;;;;;;5028624;28;20025;-77
2022/07/05 04:37:50;;;;;;;1.67;0.70;;;15.90;99.90;;;;;;5026978;28;20039;-77
2022/07/05 04:40:17;;;;;;;1.95;0.90;;;16.00;99.90;;;;;;5023787;28;20033;-77
2022/07/05 04:42:43;;;;;;;2.50;0.90;;;16.00;99.90;;;;;;5011723;28;20412;-77
2022/07/05 04:45:12;;;;;;;3.42;0.82;;;16.10;99.90;;;;;;5010824;28;20044;-77
2022/07/05 04:47:39;;;;;;;2.47;0.65;;;16.10;99.90;;;;;;5010510;28;20401;-77
2022/07/05 04:50:07;;;;;;;1.60;0.80;;;16.20;99.90;;;;;;5007115;28;20021;-77
2022/07/05 04:52:34;;;;;;;2.50;0.95;;;16.20;99.90;;;;;;5027444;28;20051;-80
2022/07/05 04:55:01;;;;;;;2.47;0.70;;;16.30;99.90;;;;;;5028602;28;20427;-79
2022/07/05 04:57:27;;;;;;;2.10;0.80;;;16.30;99.90;;;;;;5028928;28;20056;-79
2022/07/05 04:59:54;;;;;;;1.60;0.70;;;16.30;99.90;;;;;;5027038;28;20393;-79
2022/07/05 05:02:20;;;;;;;1.77;0.70;;;16.40;99.90;;;;;;5031035;28;20330;-79
2022/07/05 05:04:46;;;;;;;2.05;1.10;;;16.40;99.90;;;;;;5030405;28;20029;-79
2022/07/05 05:07:13;;;;;;;2.88;1.02;;;16.50;99.90;;;;;;5031279;28;20033;-78
2022/07/05 05:09:39;;;;;;;3.70;0.70;;;16.60;99.90;;;;;;5011029;28;20040;-79
2022/07/05 05:12:06;;;;;;;1.45;0.70;;;16.70;99.90;;;;;;5029677;28;20044;-78
2022/07/05 05:14:32;;;;;;;1.73;0.85;;;16.70;99.90;;;;;;5028270;28;20049;-79
2022/07/05 05:16:59;;;;;;;1.80;0.70;;;16.80;99.90;;;;;;5028674;28;20052;-79
2022/07/05 05:19:25;;;;;;;1.75;0.93;;;16.90;99.90;;;;;;5027922;28;20591;-79
2022/07/05 05:21:51;;;;;;;3.08;0.98;;;17.00;99.90;;;;;;5028072;28;20044;-79
2022/07/05 05:24:18;;;;;;;2.53;1.40;;;17.10;99.90;;;;;;5030778;28;20033;-83
2022/07/05 05:26:44;;;;;;;1.45;1.10;;;17.20;99.90;;;;;;5003727;28;20052;-80
2022/07/05 05:29:11;;;;;;;2.25;1.08;;;17.20;99.90;;;;;;5029606;28;20052;-82
2022/07/05 05:31:37;;;;;;;3.38;1.70;;;17.30;99.90;;;;;;5026597;28;20033;-80
2022/07/05 05:34:03;;;;;;;3.33;1.33;;;17.40;99.90;;;;;;5030688;28;20471;-80
2022/07/05 05:36:30;;;;;;;4.72;1.73;;;17.50;99.90;;;;;;5029994;28;20099;-78
2022/07/05 05:38:56;;;;;;;3.40;1.67;;;17.60;99.90;;;;;;5030907;28;20048;-78
2022/07/05 05:41:22;;;;;;;4.75;2.20;;;17.70;99.90;;;;;;5026608;28;20029;-78
2022/07/05 05:43:49;;;;;;;4.10;2.70;;;17.80;99.90;;;;;;5031223;28;20045;-79
2022/07/05 05:46:15;;;;;;;2.58;1.98;;;17.90;99.90;;;;;;5029928;28;20041;-79
2022/07/05 05:48:42;;;;;;;4.90;2.58;;;18.00;99.90;;;;;;5030768;28;20059;-79
2022/07/05 05:51:08;;;;;;;3.05;2.75;;;18.00;99.90;;;;;;5029010;28;20052;-79
2022/07/05 05:53:34;;;;;;;3.75;2.53;;;18.10;99.90;;;;;;5033647;28;20037;-79
2022/07/05 05:56:01;;;;;;;2.78;2.22;;;18.20;99.90;;;;;;5033059;28;20036;-79
2022/07/05 05:58:27;;;;;;;3.85;2.20;;;18.30;99.90;;;;;;5018036;28;20032;-79
2022/07/05 06:00:53;;;;;;;3.80;2.40;;;18.50;99.90;;;;;;5029055;28;20601;-79
2022/07/05 06:03:22;;;;;;;4.80;3.60;;;18.60;99.90;;;;;;5034299;28;20674;-80
2022/07/05 06:05:48;;;;;;;5.55;3.30;;;18.70;99.90;;;;;;5032353;28;20492;-80
2022/07/05 06:08:15;;;;;;;4.82;3.35;;;18.80;99.90;;;;;;5032728;28;20677;-78
2022/07/05 06:10:41;;;;;;;6.22;3.20;;;18.90;99.90;;;;;;5027048;28;20554;-80
2022/07/05 06:13:10;;;;;;;4.18;2.67;;;19.00;99.90;;;;;;5031106;28;20037;-79
2022/07/05 06:15:38;;;;;;;3.97;2.70;;;19.10;99.90;;;;;;5032518;28;20037;-79
2022/07/05 06:18:04;;;;;;;5.47;2.75;;;19.10;99.90;;;;;;5032911;28;20892;-81
2022/07/05 06:20:32;;;;;;;2.92;2.63;;;19.10;99.90;;;;;;5027334;28;20472;-79
2022/07/05 06:23:00;;;;;;;4.65;3.50;;;19.20;99.90;;;;;;5036216;28;20032;-80
2022/07/05 06:25:27;;;;;;;4.78;2.88;;;19.30;99.90;;;;;;5016367;28;20048;-80
2022/07/05 06:27:56;;;;;;;4.72;2.83;;;19.40;99.90;;;;;;5030948;28;20021;-81
2022/07/05 06:30:24;;;;;;;5.55;3.03;;;19.50;99.90;;;;;;5025928;28;20028;-80
2022/07/05 06:32:51;;;;;;;3.67;2.95;;;19.70;99.90;;;;;;4998857;28;20045;-81
2022/07/05 06:35:18;;;;;;;5.45;2.80;;;19.90;99.90;;;;;;5031327;28;20388;-80
2022/07/05 06:37:59;;;;;;;3.97;1.88;;;19.90;99.90;;;;;;5028600;28;20039;-79
2022/07/05 06:40:28;;;;;;;4.82;2.25;;;20.00;99.90;;;;;;5013269;28;20033;-79
2022/07/05 06:42:56;;;;;;;3.63;1.70;;;20.10;99.90;;;;;;5031594;28;20032;-78
2022/07/05 06:45:29;;;;;;;3.10;1.70;;;20.10;99.90;;;;;;5015378;28;20036;-79
2022/07/05 06:48:01;;;;;;;5.93;2.15;;;20.10;99.90;;;;;;5030539;28;20381;-79
2022/07/05 06:50:30;;;;;;;3.13;1.85;;;20.30;99.90;;;;;;5007809;28;20033;-79
2022/07/05 06:52:57;;;;;;;4.47;2.08;;;20.40;99.90;;;;;;5028625;28;20438;-79
2022/07/05 06:55:25;;;;;;;2.85;1.85;;;20.40;99.90;;;;;;5030829;28;20484;-79
2022/07/05 06:58:06;;;;;;;4.82;2.90;;;20.60;99.90;;;;;;5018148;28;20042;-78
2022/07/05 07:00:33;;;;;;;3.33;2.00;;;20.80;99.90;;;;;;5024182;28;20037;-78
2022/07/05 07:03:01;;;;;;;3.28;1.73;;;21.10;99.90;;;;;;5029556;28;20029;-79
2022/07/05 07:05:27;;;;;;;2.95;2.38;;;21.30;99.90;;;;;;5028958;28;20025;-79
2022/07/05 07:10:39;;;;;;;5.13;2.47;;;21.80;99.90;;;;;;5023811;28;20056;-79
2022/07/05 07:13:05;;;;;;;4.68;1.40;;;22.00;99.90;;;;;;5030484;28;20032;-79
2022/07/05 07:15:33;;;;;;;2.55;1.75;;;22.10;99.70;;;;;;4996058;28;20055;-78
2022/07/05 07:18:00;;;;;;;4.13;1.40;;;22.20;99.30;;;;;;5029246;28;20051;-78
2022/07/05 07:20:27;;;;;;;4.53;2.30;;;22.30;99.30;;;;;;5024540;28;20028;-79
2022/07/05 07:22:53;;;;;;;2.78;1.25;;;22.40;98.20;;;;;;5029266;28;20039;-79
2022/07/05 07:25:20;;;;;;;3.63;2.28;;;22.40;98.00;;;;;;5029914;28;21027;-79
2022/07/05 07:27:49;;;;;;;4.93;2.88;;;22.40;97.20;;;;;;5028675;28;20032;-80
2022/07/05 07:30:18;;;;;;;2.63;1.73;;;22.30;97.00;;;;;;4991864;28;20095;-79
2022/07/05 07:32:45;;;;;;;3.28;2.03;;;22.30;97.10;;;;;;5010596;28;20036;-79
2022/07/05 07:35:12;;;;;;;5.07;2.83;;;22.50;97.00;;;;;;5030670;28;20044;-79
2022/07/05 07:37:39;;;;;;;2.90;1.40;;;22.60;96.60;;;;;;5028750;28;20370;-82
2022/07/05 07:40:07;;;;;;;4.25;2.67;;;22.70;96.50;;;;;;5007385;28;20477;-77
2022/07/05 07:42:33;;;;;;;3.42;1.88;;;23.00;96.10;;;;;;5010359;28;20033;-78
2022/07/05 07:45:03;;;;;;;3.67;1.08;;;23.30;95.80;;;;;;5010801;28;20025;-77
2022/07/05 07:47:32;;;;;;;3.55;1.15;;;23.70;95.40;;;;;;5010390;28;20032;-78
2022/07/05 07:49:58;;;;;;;1.50;0.80;;;24.20;94.50;;;;;;5026370;28;20051;-78
2022/07/05 07:52:25;;;;;;;3.47;1.25;;;24.40;93.60;;;;;;5029052;28;20029;-78
2022/07/05 07:54:51;;;;;;;2.92;1.33;;;24.40;92.90;;;;;;5026961;28;20059;-78
2022/07/05 07:57:18;;;;;;;4.38;1.38;;;24.30;92.60;;;;;;5028813;28;20040;-78
2022/07/05 07:59:44;;;;;;;1.38;0.65;;;24.30;92.40;;;;;;4996688;28;20036;-79
2022/07/05 08:02:11;;;;;;;1.88;0.80;;;24.20;92.20;;;;;;5043560;28;20035;-79
2022/07/05 08:04:37;;;;;;;3.30;1.00;;;24.20;91.90;;;;;;5028063;28;20684;-78
2022/07/05 08:07:04;;;;;;;3.20;1.10;;;24.20;91.40;;;;;;5028139;28;20032;-78
2022/07/05 08:09:31;;;;;;;2.38;0.98;;;24.20;91.20;;;;;;5026482;28;20036;-79
2022/07/05 08:11:57;;;;;;;3.75;0.80;;;24.30;91.00;;;;;;4994604;28;20036;-80
2022/07/05 08:14:24;;;;;;;2.85;0.90;;;24.30;90.70;;;;;;5011617;28;20388;-80
2022/07/05 08:16:51;;;;;;;2.05;0.85;;;24.30;90.20;;;;;;5030088;28;20036;-79
2022/07/05 08:22:08;;;;;;;2.63;0.90;;;24.60;88.80;;;;;;4989626;28;20036;-79
2022/07/05 08:24:37;;;;;;;1.98;0.85;;;24.70;88.30;;;;;;5029178;28;20036;-79
2022/07/05 08:27:04;;;;;;;2.85;0.60;;;24.80;87.80;;;;;;5011330;28;21852;-79
2022/07/05 08:29:30;;;;;;;1.02;0.43;;;24.80;87.50;;;;;;5009327;28;20393;-80
2022/07/05 08:31:57;;;;;;;2.33;0.80;;;24.80;85.70;;;;;;5028661;28;20041;-79
2022/07/05 08:34:23;;;;;;;2.35;0.63;;;24.80;84.70;;;;;;5026058;28;20025;-80
2022/07/05 08:36:50;;;;;;;1.42;0.70;;;24.80;84.30;;;;;;5011966;28;21332;-80
2022/07/05 08:39:16;;;;;;;1.98;0.70;;;24.80;84.20;;;;;;5027301;28;20048;-80
2022/07/05 08:41:49;;;;;;;2.67;0.90;;;24.90;84.20;;;;;;5029228;28;20392;-81
2022/07/05 08:44:19;;;;;;;3.03;1.30;;;25.00;84.00;;;;;;5027827;28;20052;-79
2022/07/05 08:46:47;;;;;;;1.70;0.90;;;25.00;84.10;;;;;;5027848;28;20033;-79
2022/07/05 08:49:14;;;;;;;2.70;1.13;;;25.00;84.60;;;;;;5009260;28;20033;-79
2022/07/05 08:51:42;;;;;;;2.35;1.30;;;25.00;84.70;;;;;;5028655;28;20959;-79
2022/07/05 08:54:11;;;;;;;4.35;1.30;;;25.00;84.40;;;;;;5028072;28;20408;-80
2022/07/05 08:56:40;;;;;;;1.70;1.30;;;25.10;84.00;;;;;;5028545;28;20029;-80
2022/07/05 08:59:07;;;;;;;3.40;1.52;;;25.20;84.10;;;;;;5025897;28;20041;-79
2022/07/05 09:01:34;;;;;;;2.85;1.20;;;25.30;83.10;;;;;;5009652;28;20040;-79
2022/07/05 09:04:05;;;;;;;2.22;1.30;;;25.50;82.70;;;;;;5029774;28;20017;-80
2022/07/05 09:06:35;;;;;;;3.72;1.80;;;25.70;82.00;;;;;;5029934;28;20472;-79
2022/07/05 09:09:03;;;;;;;3.88;1.48;;;25.60;81.50;;;;;;5027620;28;20029;-79
2022/07/05 09:11:39;;;;;;;2.78;1.33;;;25.70;80.80;;;;;;5023973;28;20133;-79
2022/07/05 09:14:17;;;;;;;4.38;1.08;;;25.40;80.30;;;;;;5027010;28;20140;-79
2022/07/05 09:16:44;;;;;;;3.15;1.50;;;25.10;81.10;;;;;;5028531;28;20034;-78
2022/07/05 09:19:10;;;;;;;5.50;2.15;;;25.20;81.00;;;;;;5026918;28;20033;-79
2022/07/05 09:21:36;;;;;;;1.95;1.00;;;25.20;80.20;;;;;;5026210;28;20037;-78
2022/07/05 09:24:06;;;;;;;2.50;1.20;;;25.10;80.00;;;;;;5027709;28;20031;-78
2022/07/05 09:26:52;;;;;;;1.77;0.73;;;25.20;79.60;;;;;;5014073;28;20056;-79
2022/07/05 09:29:20;;;;;;;2.22;0.80;;;25.20;79.60;;;;;;5029049;28;20031;-80
2022/07/05 09:31:49;;;;;;;2.65;0.80;;;25.30;79.80;;;;;;5029909;28;20029;-80
2022/07/05 09:34:18;;;;;;;1.95;0.70;;;25.40;80.10;;;;;;5032249;28;20021;-80
2022/07/05 09:37:01;;;;;;;1.38;0.70;;;25.50;78.60;;;;;;5030484;28;21908;-80
2022/07/05 09:39:36;;;;;;;2.67;0.60;;;25.80;77.60;;;;;;5012200;28;20037;-80
2022/07/05 09:42:11;;;;;;;1.48;0.68;;;26.10;76.40;;;;;;5030557;28;20025;-80
2022/07/05 09:44:48;;;;;;;2.22;0.60;;;26.30;75.10;;;;;;5015466;28;20592;-80
2022/07/05 09:47:16;;;;;;;1.70;0.70;;;26.30;74.60;;;;;;5030744;28;20044;-79
2022/07/05 09:49:54;;;;;;;1.88;0.52;;;26.10;74.30;;;;;;5028150;28;20036;-80
2022/07/05 09:52:35;;;;;;;3.17;0.50;;;25.90;74.30;;;;;;5029846;28;20045;-80
2022/07/05 09:55:05;;;;;;;3.80;0.70;;;25.60;74.70;;;;;;5030536;28;20029;-79
2022/07/05 09:57:34;;;;;;;3.53;0.82;;;25.30;74.90;;;;;;5013735;28;20041;-79
2022/07/05 10:00:07;;;;;;;2.17;0.80;;;25.00;75.60;;;;;;5009531;28;20033;-79
2022/07/05 10:02:36;;;;;;;1.60;0.80;;;24.70;76.30;;;;;;5030438;28;20036;-80
2022/07/05 10:05:20;;;;;;;3.35;1.80;;;24.60;76.80;;;;;;5030111;28;20033;-79
2022/07/05 10:07:51;;;;;;;3.85;2.10;;;24.50;77.40;;;;;;5029843;28;20043;-80
2022/07/05 10:10:20;;;;;;;4.65;3.40;;;24.60;78.10;;;;;;5025670;28;20335;-80
2022/07/05 10:12:52;;;;;;;3.58;2.75;;;24.60;78.60;;;;;;5029728;28;20049;-82
2022/07/05 10:15:27;;;;;;;;;;;24.70;79.00;;;;;;5012840;28;20037;-79
2022/07/05 10:17:59;;;;;;;3.00;1.60;;;24.80;79.00;;;;;;5030696;28;19920;-79
2022/07/05 10:20:35;;;;;;;4.05;2.00;;;25.20;78.90;;;;;;5028504;28;20347;-79
2022/07/05 10:23:03;;;;;;;3.03;2.05;;;25.60;78.00;;;;;;5031598;28;20025;-80
2022/07/05 10:25:30;;;;;;;2.22;1.50;;;25.80;77.40;;;;;;5030694;28;20021;-79
2022/07/05 10:27:58;;;;;;;4.82;1.30;;;26.10;76.80;;;;;;5032311;28;20044;-79
2022/07/05 10:30:25;;;;;;;3.22;1.40;;;26.30;76.10;;;;;;5027030;28;20024;-80
2022/07/05 10:32:52;;;;;;;3.50;1.27;;;26.50;75.10;;;;;;5030376;28;20029;-79
2022/07/05 10:35:19;;;;;;;1.88;1.08;;;26.60;75.10;;;;;;5031182;28;20038;-79
2022/07/05 10:37:46;;;;;;;2.85;1.20;;;26.80;75.70;;;;;;5014042;28;20381;-79
2022/07/05 10:40:14;;;;;;;4.35;1.70;;;26.90;75.20;;;;;;5026212;28;20029;-80
2022/07/05 10:42:45;;;;;;;2.97;1.33;;;27.20;74.80;;;;;;5028892;28;20044;-80
2022/07/05 10:45:34;;;;;;;2.80;1.33;;;27.50;73.90;;;;;;5029191;28;20025;-79
2022/07/05 10:48:09;;;;;;;2.25;1.40;;;27.80;73.10;;;;;;5013731;28;20482;-79
2022/07/05 10:51:08;;;;;;;3.63;1.50;;;28.20;71.50;;;;;;5025484;28;20033;-80
2022/07/05 10:53:37;;;;;;;3.25;0.90;;;28.10;68.40;;;;;;5030348;28;20045;-80
2022/07/05 10:56:03;;;;;;;2.05;0.77;;;27.70;69.10;;;;;;5029750;28;20033;-80
2022/07/05 10:58:30;;;;;;;2.15;0.73;;;27.40;69.90;;;;;;5031418;28;20048;-79
2022/07/05 11:01:12;;;;;;;3.78;0.90;;;27.20;69.80;;;;;;5007965;28;20036;-79
2022/07/05 11:03:41;;;;;;;3.28;1.15;;;27.00;69.50;;;;;;5029300;28;20033;-79
2022/07/05 11:06:08;;;;;;;4.32;0.70;;;27.10;70.00;;;;;;5030072;28;20024;-80
2022/07/05 11:08:57;;;;;;;2.13;0.70;;;27.70;69.80;;;;;;5029896;28;20069;-80
2022/07/05 11:11:27;;;;;;;3.95;0.70;;;28.60;69.10;;;;;;5027127;28;20039;-80
2022/07/05 11:13:55;;;;;;;1.95;0.60;;;29.40;67.70;;;;;;5028570;28;20047;-80
2022/07/05 11:16:37;;;;;;;0.98;0.40;;;29.90;66.40;;;;;;5027912;28;20028;-80
2022/07/05 11:19:08;;;;;;;1.00;0.30;;;30.10;63.80;;;;;;5028522;28;20041;-79
2022/07/05 11:21:37;;;;;;;1.95;0.50;;;29.70;62.10;;;;;;5026108;28;20048;-78
2022/07/05 11:24:23;;;;;;;2.50;1.40;;;29.20;62.00;;;;;;5027849;28;20100;-78
2022/07/05 11:26:54;;;;;;;1.60;0.80;;;28.60;61.90;;;;;;5010638;28;20033;-78
2022/07/05 11:29:40;;;;;;;1.15;0.40;;;28.20;62.70;;;;;;5026134;28;21082;-80
2022/07/05 11:32:09;;;;;;;1.27;0.45;;;27.80;63.10;;;;;;5027239;28;20036;-80
2022/07/05 11:34:36;;;;;;;1.58;0.30;;;27.40;63.60;;;;;;5029140;28;20029;-80
2022/07/05 11:37:34;;;;;;;0.75;0.30;;;27.00;63.90;;;;;;5030219;28;20036;-80
2022/07/05 11:40:07;;;;;;;0.73;0.30;;;26.60;64.60;;;;;;5026693;28;20036;-79
2022/07/05 11:42:41;;;;;;;2.28;0.40;;;26.10;64.90;;;;;;5027277;28;20045;-80
2022/07/05 11:45:09;;;;;;;1.17;0.30;;;25.80;65.10;;;;;;5028512;28;20392;-79
2022/07/05 11:47:36;;;;;;;0.93;0.30;;;25.70;65.30;;;;;;5028096;28;20033;-79
2022/07/05 11:50:02;;;;;;;1.77;0.50;;;25.60;65.60;;;;;;5026309;28;20025;-80
2022/07/05 11:52:31;;;;;;;2.75;0.40;;;25.60;65.10;;;;;;5029309;28;20033;-80
2022/07/05 11:54:59;;;;;;;2.58;0.55;;;25.50;65.70;;;;;;5028390;28;20697;-80
2022/07/05 11:57:25;;;;;;;1.80;0.50;;;25.60;65.80;;;;;;5011317;28;20052;-79
2022/07/05 11:59:52;;;;;;;1.90;0.35;;;26.30;66.00;;;;;;5025784;28;20040;-85
2022/07/05 12:02:19;;;;;;;2.00;0.30;;;27.60;64.70;;;;;;5028077;28;20032;-82
2022/07/05 12:04:51;;;;;;;2.15;0.30;;;28.30;62.00;;;;;;5012511;28;20112;-79
2022/07/05 12:07:28;;;;;;;0.93;0.30;;;28.60;61.10;;;;;;5029211;28;20017;-78
2022/07/05 12:12:42;;;;;;;1.27;0.30;;;30.10;59.00;;;;;;5028558;28;20031;-79
2022/07/05 12:15:20;;;;;;;2.50;0.38;;;30.70;57.40;;;;;;5026960;28;20349;-79
2022/07/05 12:17:50;;;;;;;2.05;0.20;;;30.60;56.10;;;;;;5011154;28;20045;-79
2022/07/05 12:20:25;;;;;;;1.50;0.30;;;30.60;55.30;;;;;;5008510;28;20017;-78
2022/07/05 12:22:51;;;;;;;1.83;0.30;;;30.50;55.90;;;;;;5011532;28;20059;-78
2022/07/05 12:25:20;;;;;;;0.85;0.30;;;31.10;55.70;;;;;;5028457;28;20024;-79
2022/07/05 12:27:48;;;;;;;3.88;0.30;;;31.60;54.00;;;;;;5027233;28;20031;-79
2022/07/05 12:30:16;;;;;;;2.53;0.30;;;31.10;53.10;;;;;;5026106;28;20033;-79
2022/07/05 12:33:02;;;;;;;1.27;0.28;;;30.00;53.90;;;;;;5010682;28;20033;-77
2022/07/05 12:35:43;;;;;;;1.13;0.20;;;29.20;55.50;;;;;;5027271;28;20496;-80
2022/07/05 12:38:16;;;;;;;1.15;0.30;;;29.60;56.10;;;;;;4995054;28;20159;-80
2022/07/05 12:40:45;;;;;;;1.75;0.30;;;30.60;54.60;;;;;;5026059;28;20047;-80
2022/07/05 12:43:16;;;;;;;3.85;2.10;;;31.60;53.10;;;;;;5011887;28;20408;-79
2022/07/05 12:45:58;;;;;;;1.88;0.60;;;32.50;51.90;;;;;;5028091;28;20028;-79
2022/07/05 12:48:40;;;;;;;0.73;0.20;;;33.10;49.80;;;;;;5027502;28;20028;-81
2022/07/05 12:51:08;;;;;;;3.30;1.33;;;33.20;49.30;;;;;;5024963;28;20374;-80
2022/07/05 12:59:13;;;;;;;1.00;0.30;;;31.70;50.00;;;;;;5025350;28;20052;-81
2022/07/05 13:01:42;;;;;;;1.40;0.30;;;30.50;51.40;;;;;;5027010;28;20037;-81
2022/07/05 13:04:10;;;;;;;1.92;0.40;;;29.70;52.80;;;;;;5028321;28;20904;-81
2022/07/05 13:06:56;;;;;;;1.58;0.30;;;29.10;53.90;;;;;;5011749;28;20129;-80
2022/07/05 13:09:31;;;;;;;3.10;0.70;;;28.70;54.70;;;;;;5024759;28;20056;-80
2022/07/05 13:12:24;;;;;;;2.78;0.43;;;28.50;55.00;;;;;;5025253;28;20048;-79